sensor_id;sensor_type;location;lat;lon;timestamp;pressure;altitude;pressure_sealevel;temperature;humidity
32330;BME280;18807;52.434;13.238;2023-08-06T00:03:32;74906.50;;;-142.05;100.00
32330;BME280;18807;52.434;13.238;2023-08-06T00:11:07;74916.69;;;-142.05;100.00
32330;BME280;18807;52.434;13.238;2023-08-06T00:18:42;74904.44;;;-142.05;100.00
32330;BME280;18807;52.434;13.238;2023-08-06T00:26:17;74910.56;;;-142.05;100.00
32330;BME280;18807;52.434;13.238;2023-08-06T00:33:54;74906.50;;;-142.05;100.00
32330;BME280;18807;52.434;13.238;2023-08-06T00:41:28;74904.44;;;-142.05;100.00
32330;BME280;18807;52.434;13.238;2023-08-06T00:49:04;74930.97;;;-142.05;100.00
32330;BME280;18807;52.434;13.238;2023-08-06T00:56:41;74933.03;;;-142.05;100.00
32330;BME280;18807;52.434;13.238;2023-08-06T01:04:17;74918.72;;;-142.05;100.00
32330;BME280;18807;52.434;13.238;2023-08-06T01:11:59;74914.66;;;-142.05;100.00
32330;BME280;18807;52.434;13.238;2023-08-06T01:19:39;74908.53;;;-142.05;100.00
32330;BME280;18807;52.434;13.238;2023-08-06T01:27:22;74914.66;;;-142.05;100.00
32330;BME280;18807;52.434;13.238;2023-08-06T01:35:00;74912.63;;;-142.05;100.00
32330;BME280;18807;52.434;13.238;2023-08-06T01:42:37;74912.63;;;-142.05;100.00
32330;BME280;18807;52.434;13.238;2023-08-06T01:50:11;74912.63;;;-142.05;100.00
32330;BME280;18807;52.434;13.238;2023-08-06T01:57:48;74896.28;;;-142.05;100.00
32330;BME280;18807;52.434;13.238;2023-08-06T02:05:22;74906.50;;;-142.05;100.00
32330;BME280;18807;52.434;13.238;2023-08-06T02:12:57;74902.41;;;-142.05;100.00
32330;BME280;18807;52.434;13.238;2023-08-06T02:20:32;74900.38;;;-142.05;100.00
32330;BME280;18807;52.434;13.238;2023-08-06T02:28:08;74910.56;;;-142.05;100.00
32330;BME280;18807;52.434;13.238;2023-08-06T02:35:42;74914.66;;;-142.05;100.00
32330;BME280;18807;52.434;13.238;2023-08-06T02:43:18;74906.50;;;-142.05;100.00
32330;BME280;18807;52.434;13.238;2023-08-06T02:50:52;74910.56;;;-142.05;100.00
32330;BME280;18807;52.434;13.238;2023-08-06T02:58:28;74908.53;;;-142.05;100.00
32330;BME280;18807;52.434;13.238;2023-08-06T03:06:03;74916.69;;;-142.05;100.00
32330;BME280;18807;52.434;13.238;2023-08-06T03:13:38;74935.06;;;-142.05;100.00
32330;BME280;18807;52.434;13.238;2023-08-06T03:21:13;74920.78;;;-142.05;100.00
32330;BME280;18807;52.434;13.238;2023-08-06T03:28:48;74928.94;;;-142.05;100.00
32330;BME280;18807;52.434;13.238;2023-08-06T03:36:24;74914.66;;;-142.05;100.00
32330;BME280;18807;52.434;13.238;2023-08-06T03:44:01;74918.72;;;-142.05;100.00
32330;BME280;18807;52.434;13.238;2023-08-06T03:51:36;74914.66;;;-142.05;100.00
32330;BME280;18807;52.434;13.238;2023-08-06T03:59:12;74904.44;;;-142.05;100.00
32330;BME280;18807;52.434;13.238;2023-08-06T04:06:46;74906.50;;;-142.05;100.00
32330;BME280;18807;52.434;13.238;2023-08-06T04:14:22;74910.56;;;-142.05;100.00
32330;BME280;18807;52.434;13.238;2023-08-06T04:21:56;74918.72;;;-142.05;100.00
32330;BME280;18807;52.434;13.238;2023-08-06T04:29:32;74902.41;;;-142.05;100.00
32330;BME280;18807;52.434;13.238;2023-08-06T04:37:06;74906.50;;;-142.05;100.00
32330;BME280;18807;52.434;13.238;2023-08-06T04:44:42;74904.44;;;-142.05;100.00
32330;BME280;18807;52.434;13.238;2023-08-06T04:52:16;74906.50;;;-142.05;100.00
32330;BME280;18807;52.434;13.238;2023-08-06T04:59:52;74888.13;;;-142.05;100.00
32330;BME280;18807;52.434;13.238;2023-08-06T05:07:26;74888.13;;;-142.05;100.00
32330;BME280;18807;52.434;13.238;2023-08-06T05:15:02;74898.34;;;-142.05;100.00
32330;BME280;18807;52.434;13.238;2023-08-06T05:22:37;74892.22;;;-142.05;100.00
32330;BME280;18807;52.434;13.238;2023-08-06T05:30:13;74871.81;;;-142.05;100.00
32330;BME280;18807;52.434;13.238;2023-08-06T05:37:48;74861.59;;;-142.05;100.00
32330;BME280;18807;52.434;13.238;2023-08-06T05:45:25;74865.69;;;-142.05;100.00
32330;BME280;18807;52.434;13.238;2023-08-06T05:52:59;74865.69;;;-142.05;100.00
32330;BME280;18807;52.434;13.238;2023-08-06T06:00:35;74867.72;;;-142.05;100.00
32330;BME280;18807;52.434;13.238;2023-08-06T06:08:09;74845.28;;;-142.05;100.00
32330;BME280;18807;52.434;13.238;2023-08-06T06:15:46;74828.97;;;-142.05;100.00
32330;BME280;18807;52.434;13.238;2023-08-06T06:23:21;74841.22;;;-142.05;100.00
32330;BME280;18807;52.434;13.238;2023-08-06T06:31:01;74826.94;;;-142.05;100.00
32330;BME280;18807;52.434;13.238;2023-08-06T06:38:36;74812.66;;;-142.05;100.00
32330;BME280;18807;52.434;13.238;2023-08-06T06:46:13;74808.56;;;-142.05;100.00
32330;BME280;18807;52.434;13.238;2023-08-06T06:53:47;74784.09;;;-142.05;100.00
32330;BME280;18807;52.434;13.238;2023-08-06T07:01:25;74777.97;;;-142.05;100.00
32330;BME280;18807;52.434;13.238;2023-08-06T07:08:59;74765.72;;;-142.05;100.00
32330;BME280;18807;52.434;13.238;2023-08-06T07:16:35;74777.97;;;-142.05;100.00
32330;BME280;18807;52.434;13.238;2023-08-06T07:24:10;74763.69;;;-142.05;100.00
32330;BME280;18807;52.434;13.238;2023-08-06T07:31:46;74749.41;;;-142.05;100.00
32330;BME280;18807;52.434;13.238;2023-08-06T07:39:20;74737.16;;;-142.05;100.00
32330;BME280;18807;52.434;13.238;2023-08-06T07:46:57;74731.03;;;-142.05;100.00
32330;BME280;18807;52.434;13.238;2023-08-06T07:54:31;74720.84;;;-142.05;100.00
32330;BME280;18807;52.434;13.238;2023-08-06T08:02:07;74714.72;;;-142.05;100.00
32330;BME280;18807;52.434;13.238;2023-08-06T08:09:41;74712.69;;;-142.05;100.00
32330;BME280;18807;52.434;13.238;2023-08-06T08:17:17;74700.44;;;-142.05;100.00
32330;BME280;18807;52.434;13.238;2023-08-06T08:24:52;74690.22;;;-142.05;100.00
32330;BME280;18807;52.434;13.238;2023-08-06T08:32:28;74671.88;;;-142.05;100.00
32330;BME280;18807;52.434;13.238;2023-08-06T08:40:03;74684.13;;;-142.05;100.00
32330;BME280;18807;52.434;13.238;2023-08-06T08:47:40;74667.78;;;-142.05;100.00
32330;BME280;18807;52.434;13.238;2023-08-06T08:55:16;74643.31;;;-142.05;100.00
32330;BME280;18807;52.434;13.238;2023-08-06T09:02:52;74620.88;;;-142.05;100.00
32330;BME280;18807;52.434;13.238;2023-08-06T09:10:29;74614.75;;;-142.05;100.00
32330;BME280;18807;52.434;13.238;2023-08-06T09:18:11;74598.44;;;-142.05;100.00
32330;BME280;18807;52.434;13.238;2023-08-06T09:25:46;74600.47;;;-142.05;100.00
32330;BME280;18807;52.434;13.238;2023-08-06T09:33:22;74590.28;;;-142.05;100.00
32330;BME280;18807;52.434;13.238;2023-08-06T09:40:56;74588.22;;;-142.05;100.00
32330;BME280;18807;52.434;13.238;2023-08-06T09:48:36;74571.91;;;-142.05;100.00
32330;BME280;18807;52.434;13.238;2023-08-06T09:56:11;74555.59;;;-142.05;100.00
32330;BME280;18807;52.434;13.238;2023-08-06T10:03:51;74551.50;;;-142.05;100.00
32330;BME280;18807;52.434;13.238;2023-08-06T10:11:28;74545.38;;;-142.05;100.00
32330;BME280;18807;52.434;13.238;2023-08-06T10:19:07;74522.94;;;-142.05;100.00
32330;BME280;18807;52.434;13.238;2023-08-06T10:26:44;74508.66;;;-142.05;100.00
32330;BME280;18807;52.434;13.238;2023-08-06T10:34:20;74510.72;;;-142.05;100.00
32330;BME280;18807;52.434;13.238;2023-08-06T10:41:55;74496.44;;;-142.05;100.00
32330;BME280;18807;52.434;13.238;2023-08-06T10:49:33;74486.22;;;-142.05;100.00
32330;BME280;18807;52.434;13.238;2023-08-06T10:57:09;74471.94;;;-142.05;100.00
32330;BME280;18807;52.434;13.238;2023-08-06T11:04:45;74459.72;;;-142.05;100.00
32330;BME280;18807;52.434;13.238;2023-08-06T11:12:20;74465.84;;;-142.05;100.00
32330;BME280;18807;52.434;13.238;2023-08-06T11:19:58;74453.59;;;-142.05;100.00
32330;BME280;18807;52.434;13.238;2023-08-06T11:27:33;74437.28;;;-142.05;100.00
32330;BME280;18807;52.434;13.238;2023-08-06T11:35:14;74427.06;;;-142.05;100.00
32330;BME280;18807;52.434;13.238;2023-08-06T11:42:48;74416.88;;;-142.05;100.00
32330;BME280;18807;52.434;13.238;2023-08-06T11:50:27;74404.63;;;-142.05;100.00
32330;BME280;18807;52.434;13.238;2023-08-06T11:58:03;74396.47;;;-142.05;100.00
32330;BME280;18807;52.434;13.238;2023-08-06T12:05:41;74384.22;;;-142.05;100.00
32330;BME280;18807;52.434;13.238;2023-08-06T12:13:15;74382.19;;;-142.05;100.00
32330;BME280;18807;52.434;13.238;2023-08-06T12:20:51;74361.78;;;-142.05;100.00
32330;BME280;18807;52.434;13.238;2023-08-06T12:28:27;74376.06;;;-142.05;100.00
32330;BME280;18807;52.434;13.238;2023-08-06T12:36:06;74367.91;;;-142.05;100.00
32330;BME280;18807;52.434;13.238;2023-08-06T12:43:40;74361.78;;;-142.05;100.00
32330;BME280;18807;52.434;13.238;2023-08-06T12:51:17;74359.75;;;-142.05;100.00
32330;BME280;18807;52.434;13.238;2023-08-06T12:58:54;74384.22;;;-142.05;100.00
32330;BME280;18807;52.434;13.238;2023-08-06T13:06:31;74514.78;;;-142.05;100.00
32330;BME280;18807;52.434;13.238;2023-08-06T13:14:10;74525.00;;;-142.05;100.00
32330;BME280;18807;52.434;13.238;2023-08-06T13:22:03;74549.47;;;-142.05;100.00
32330;BME280;18807;52.434;13.238;2023-08-06T13:29:54;74547.44;;;-142.05;100.00
32330;BME280;18807;52.434;13.238;2023-08-06T13:37:35;74545.38;;;-142.05;100.00
32330;BME280;18807;52.434;13.238;2023-08-06T13:45:11;74551.50;;;-142.05;100.00
32330;BME280;18807;52.434;13.238;2023-08-06T13:52:47;74541.31;;;-142.05;100.00
32330;BME280;18807;52.434;13.238;2023-08-06T14:00:30;74535.19;;;-142.05;100.00
32330;BME280;18807;52.434;13.238;2023-08-06T14:08:07;74527.03;;;-142.05;100.00
32330;BME280;18807;52.434;13.238;2023-08-06T14:15:43;74516.84;;;-142.05;100.00
32330;BME280;18807;52.434;13.238;2023-08-06T14:23:21;74500.50;;;-142.05;100.00
32330;BME280;18807;52.434;13.238;2023-08-06T14:30:55;74504.59;;;-142.05;100.00
32330;BME280;18807;52.434;13.238;2023-08-06T14:38:32;74514.78;;;-142.05;100.00
32330;BME280;18807;52.434;13.238;2023-08-06T14:46:21;74539.28;;;-142.05;100.00
32330;BME280;18807;52.434;13.238;2023-08-06T14:54:03;74529.06;;;-142.05;100.00
32330;BME280;18807;52.434;13.238;2023-08-06T15:01:58;74516.84;;;-142.05;100.00
32330;BME280;18807;52.434;13.238;2023-08-06T15:09:49;74510.72;;;-142.05;100.00
32330;BME280;18807;52.434;13.238;2023-08-06T15:18:13;74520.91;;;-142.05;100.00
32330;BME280;18807;52.434;13.238;2023-08-06T15:26:04;74545.38;;;-142.05;100.00
32330;BME280;18807;52.434;13.238;2023-08-06T15:33:54;74553.56;;;-142.05;100.00
32330;BME280;18807;52.434;13.238;2023-08-06T15:42:05;74543.34;;;-142.05;100.00
32330;BME280;18807;52.434;13.238;2023-08-06T15:50:10;74541.31;;;-142.05;100.00
32330;BME280;18807;52.434;13.238;2023-08-06T15:57:54;74531.09;;;-142.05;100.00
32330;BME280;18807;52.434;13.238;2023-08-06T16:05:34;74531.09;;;-142.05;100.00
32330;BME280;18807;52.434;13.238;2023-08-06T16:13:10;74522.94;;;-142.05;100.00
32330;BME280;18807;52.434;13.238;2023-08-06T16:20:44;74518.88;;;-142.05;100.00
32330;BME280;18807;52.434;13.238;2023-08-06T16:28:21;74518.88;;;-142.05;100.00
32330;BME280;18807;52.434;13.238;2023-08-06T16:35:55;74510.72;;;-142.05;100.00
32330;BME280;18807;52.434;13.238;2023-08-06T16:43:31;74516.84;;;-142.05;100.00
32330;BME280;18807;52.434;13.238;2023-08-06T16:51:06;74514.78;;;-142.05;100.00
32330;BME280;18807;52.434;13.238;2023-08-06T16:58:42;74535.19;;;-142.05;100.00
32330;BME280;18807;52.434;13.238;2023-08-06T17:06:17;74527.03;;;-142.05;100.00
32330;BME280;18807;52.434;13.238;2023-08-06T17:13:53;74531.09;;;-142.05;100.00
32330;BME280;18807;52.434;13.238;2023-08-06T17:21:28;74535.19;;;-142.05;100.00
32330;BME280;18807;52.434;13.238;2023-08-06T17:29:04;74533.16;;;-142.05;100.00
32330;BME280;18807;52.434;13.238;2023-08-06T17:36:38;74533.16;;;-142.05;100.00
32330;BME280;18807;52.434;13.238;2023-08-06T17:44:14;74533.16;;;-142.05;100.00
32330;BME280;18807;52.434;13.238;2023-08-06T17:51:48;74525.00;;;-142.05;100.00
32330;BME280;18807;52.434;13.238;2023-08-06T17:59:24;74531.09;;;-142.05;100.00
32330;BME280;18807;52.434;13.238;2023-08-06T18:06:59;74539.28;;;-142.05;100.00
32330;BME280;18807;52.434;13.238;2023-08-06T18:14:35;74541.31;;;-142.05;100.00
32330;BME280;18807;52.434;13.238;2023-08-06T18:22:10;74539.28;;;-142.05;100.00
32330;BME280;18807;52.434;13.238;2023-08-06T18:29:48;74543.34;;;-142.05;100.00
32330;BME280;18807;52.434;13.238;2023-08-06T18:37:41;74551.50;;;-142.05;100.00
32330;BME280;18807;52.434;13.238;2023-08-06T18:45:21;74551.50;;;-142.05;100.00
32330;BME280;18807;52.434;13.238;2023-08-06T18:52:57;74567.84;;;-142.05;100.00
32330;BME280;18807;52.434;13.238;2023-08-06T19:00:38;74567.84;;;-142.05;100.00
32330;BME280;18807;52.434;13.238;2023-08-06T19:08:13;74580.06;;;-142.05;100.00
32330;BME280;18807;52.434;13.238;2023-08-06T19:15:49;74584.16;;;-142.05;100.00
32330;BME280;18807;52.434;13.238;2023-08-06T19:23:24;74580.06;;;-142.05;100.00
32330;BME280;18807;52.434;13.238;2023-08-06T19:31:02;74592.31;;;-142.05;100.00
32330;BME280;18807;52.434;13.238;2023-08-06T19:38:36;74598.44;;;-142.05;100.00
32330;BME280;18807;52.434;13.238;2023-08-06T19:46:12;74592.31;;;-142.05;100.00
32330;BME280;18807;52.434;13.238;2023-08-06T19:53:46;74604.56;;;-142.05;100.00
32330;BME280;18807;52.434;13.238;2023-08-06T20:01:22;74606.59;;;-142.05;100.00
32330;BME280;18807;52.434;13.238;2023-08-06T20:08:59;74608.63;;;-142.05;100.00
32330;BME280;18807;52.434;13.238;2023-08-06T20:16:35;74608.63;;;-142.05;100.00
32330;BME280;18807;52.434;13.238;2023-08-06T20:24:09;74612.72;;;-142.05;100.00
32330;BME280;18807;52.434;13.238;2023-08-06T20:31:45;74616.78;;;-142.05;100.00
32330;BME280;18807;52.434;13.238;2023-08-06T20:39:19;74622.91;;;-142.05;100.00
32330;BME280;18807;52.434;13.238;2023-08-06T20:46:56;74645.34;;;-142.05;100.00
32330;BME280;18807;52.434;13.238;2023-08-06T20:54:31;74653.50;;;-142.05;100.00
32330;BME280;18807;52.434;13.238;2023-08-06T21:02:07;74673.91;;;-142.05;100.00
32330;BME280;18807;52.434;13.238;2023-08-06T21:09:42;74694.31;;;-142.05;100.00
32330;BME280;18807;52.434;13.238;2023-08-06T21:17:17;74710.63;;;-142.05;100.00
32330;BME280;18807;52.434;13.238;2023-08-06T21:24:51;74718.78;;;-142.05;100.00
32330;BME280;18807;52.434;13.238;2023-08-06T21:32:27;74722.88;;;-142.05;100.00
32330;BME280;18807;52.434;13.238;2023-08-06T21:40:02;74720.84;;;-142.05;100.00
32330;BME280;18807;52.434;13.238;2023-08-06T21:47:38;74724.91;;;-142.05;100.00
32330;BME280;18807;52.434;13.238;2023-08-06T21:55:12;74733.06;;;-142.05;100.00
32330;BME280;18807;52.434;13.238;2023-08-06T22:02:48;74767.75;;;-142.05;100.00
32330;BME280;18807;52.434;13.238;2023-08-06T22:10:22;74769.81;;;-142.05;100.00
32330;BME280;18807;52.434;13.238;2023-08-06T22:17:59;74792.25;;;-142.05;100.00
32330;BME280;18807;52.434;13.238;2023-08-06T22:25:34;74771.84;;;-142.05;100.00
32330;BME280;18807;52.434;13.238;2023-08-06T22:33:10;74782.03;;;-142.05;100.00
32330;BME280;18807;52.434;13.238;2023-08-06T22:40:47;74780.00;;;-142.05;100.00
32330;BME280;18807;52.434;13.238;2023-08-06T22:48:23;74800.41;;;-142.05;100.00
32330;BME280;18807;52.434;13.238;2023-08-06T22:55:57;74816.72;;;-142.05;100.00
32330;BME280;18807;52.434;13.238;2023-08-06T23:03:36;74820.81;;;-142.05;100.00
32330;BME280;18807;52.434;13.238;2023-08-06T23:11:12;74814.69;;;-142.05;100.00
32330;BME280;18807;52.434;13.238;2023-08-06T23:18:48;74820.81;;;-142.05;100.00
32330;BME280;18807;52.434;13.238;2023-08-06T23:26:24;74831.00;;;-142.05;100.00
32330;BME280;18807;52.434;13.238;2023-08-06T23:34:00;74833.03;;;-142.05;100.00
32330;BME280;18807;52.434;13.238;2023-08-06T23:41:35;74843.25;;;-142.05;100.00
32330;BME280;18807;52.434;13.238;2023-08-06T23:49:10;74843.25;;;-142.05;100.00
32330;BME280;18807;52.434;13.238;2023-08-06T23:56:45;74839.16;;;-142.05;100.00
